Time;durP1;ratioP1;P1;durP2;ratioP2;P2;SDS_P1;SDS_P2;PMS_P1;PMS_P2;Temp;Humidity;BMP_temperature;BMP_pressure;BME280_temperature;BME280_humidity;BME280_pressure;Samples;Min_cycle;Max_cycle;Signal;HPM_P1;HPM_P2
2022/03/04 00:02:33;;;;;;;49.73;20.77;;;0.10;99.90;;;;;;10367855;28;20038;-86
2022/03/04 00:07:34;;;;;;;48.80;22.40;;;0.00;99.90;;;;;;10367308;28;20041;-86
2022/03/04 00:12:35;;;;;;;50.63;22.13;;;0.10;99.90;;;;;;10367932;28;20388;-84
2022/03/04 00:17:36;;;;;;;53.97;22.27;;;0.10;99.90;;;;;;10367588;28;20105;-84
2022/03/04 00:22:36;;;;;;;43.23;19.33;;;0.20;99.90;;;;;;10349138;28;20018;-83
2022/03/04 00:27:38;;;;;;;42.03;18.80;;;0.20;99.90;;;;;;10366776;28;20056;-84
2022/03/04 00:32:39;;;;;;;105.70;44.23;;;0.30;99.90;;;;;;10367720;28;20065;-84
2022/03/04 00:37:40;;;;;;;50.60;23.17;;;0.30;99.90;;;;;;10367316;28;20105;-84
2022/03/04 00:42:42;;;;;;;63.73;28.30;;;0.30;99.90;;;;;;10367137;28;20440;-84
2022/03/04 00:47:42;;;;;;;48.20;20.23;;;0.30;99.90;;;;;;10357173;28;20046;-84
2022/03/04 00:52:43;;;;;;;91.83;39.23;;;0.30;99.90;;;;;;10348625;28;20393;-83
2022/03/04 00:57:43;;;;;;;56.00;23.93;;;0.30;99.90;;;;;;10348265;28;20398;-84
2022/03/04 01:02:44;;;;;;;46.17;21.33;;;0.30;99.90;;;;;;10367211;28;20084;-84
2022/03/04 01:07:45;;;;;;;44.50;19.40;;;0.30;99.90;;;;;;10374270;28;20050;-84
2022/03/04 01:12:46;;;;;;;43.80;19.00;;;0.20;99.90;;;;;;10374506;28;20092;-84
2022/03/04 01:17:46;;;;;;;41.73;19.27;;;0.20;99.90;;;;;;10373759;28;20465;-84
2022/03/04 01:22:47;;;;;;;43.53;19.70;;;0.10;99.90;;;;;;10373946;28;20095;-84
2022/03/04 01:27:48;;;;;;;53.53;23.77;;;0.00;99.90;;;;;;10357270;28;20137;-84
2022/03/04 01:32:48;;;;;;;56.83;24.53;;;-0.10;99.90;;;;;;10361676;28;20042;-84
2022/03/04 01:37:49;;;;;;;54.47;24.23;;;-0.10;99.90;;;;;;10373967;28;20058;-84
2022/03/04 01:42:50;;;;;;;48.80;20.20;;;-0.10;99.90;;;;;;10372639;28;20034;-84
2022/03/04 01:47:51;;;;;;;41.13;18.53;;;-0.10;99.90;;;;;;10365232;28;20041;-84
2022/03/04 01:52:52;;;;;;;43.43;18.67;;;-0.10;99.90;;;;;;10373057;28;20063;-84
2022/03/04 01:57:52;;;;;;;39.50;18.33;;;-0.10;99.90;;;;;;10372424;28;20026;-85
2022/03/04 02:02:57;;;;;;;38.90;18.13;;;-0.20;99.90;;;;;;10371502;28;20033;-86
2022/03/04 02:07:57;;;;;;;43.10;18.13;;;-0.20;99.90;;;;;;10355237;28;20047;-86
2022/03/04 02:12:58;;;;;;;44.57;19.23;;;-0.10;99.90;;;;;;10371551;28;20030;-85
2022/03/04 02:17:59;;;;;;;45.50;19.40;;;-0.10;99.90;;;;;;10371411;28;20066;-86
2022/03/04 02:22:59;;;;;;;46.97;21.03;;;-0.10;99.90;;;;;;10371692;28;20030;-85
2022/03/04 02:28:00;;;;;;;48.47;22.43;;;-0.10;99.90;;;;;;10370577;28;20137;-86
2022/03/04 02:33:01;;;;;;;65.17;25.10;;;-0.10;99.90;;;;;;10370327;28;20034;-85
2022/03/04 02:38:02;;;;;;;51.93;24.33;;;-0.20;99.90;;;;;;10371238;28;20045;-86
2022/03/04 02:43:04;;;;;;;59.90;26.10;;;-0.10;99.90;;;;;;10370263;28;20048;-86
2022/03/04 02:48:05;;;;;;;58.13;25.80;;;-0.10;99.90;;;;;;10369920;28;20120;-86
2022/03/04 02:53:05;;;;;;;63.40;26.27;;;-0.10;99.90;;;;;;10370410;28;20030;-85
2022/03/04 02:58:06;;;;;;;69.37;29.63;;;-0.10;99.90;;;;;;10370408;28;20100;-85
2022/03/04 03:03:07;;;;;;;66.53;27.27;;;-0.10;99.90;;;;;;10369783;28;20405;-86
2022/03/04 03:08:08;;;;;;;66.07;29.00;;;-0.10;99.90;;;;;;10368774;28;20048;-86
2022/03/04 03:13:08;;;;;;;70.07;29.07;;;-0.10;99.90;;;;;;10369859;28;20113;-86
2022/03/04 03:18:09;;;;;;;65.97;28.80;;;-0.10;99.90;;;;;;10368846;28;20053;-86
2022/03/04 03:23:10;;;;;;;66.43;26.60;;;-0.10;99.90;;;;;;10368526;28;20122;-86
2022/03/04 03:28:10;;;;;;;67.17;27.90;;;0.00;99.90;;;;;;10368979;28;20034;-87
2022/03/04 03:33:11;;;;;;;64.27;25.00;;;0.00;99.90;;;;;;10367345;28;20033;-86
2022/03/04 03:38:12;;;;;;;56.70;25.20;;;0.00;99.90;;;;;;10369142;28;20037;-86
2022/03/04 03:43:12;;;;;;;58.60;25.10;;;-0.10;99.90;;;;;;10350794;28;20026;-86
2022/03/04 03:48:13;;;;;;;61.30;25.70;;;-0.10;99.90;;;;;;10350176;28;20042;-86
2022/03/04 03:53:14;;;;;;;61.80;26.87;;;-0.10;99.90;;;;;;10366674;28;20478;-86
2022/03/04 03:58:15;;;;;;;56.80;25.30;;;-0.10;99.90;;;;;;10367250;28;20038;-85
2022/03/04 04:03:15;;;;;;;62.17;24.77;;;0.00;99.90;;;;;;10366627;28;20029;-86
2022/03/04 04:08:16;;;;;;;63.73;25.10;;;0.00;99.90;;;;;;10367423;28;20038;-85
2022/03/04 04:13:17;;;;;;;55.50;22.80;;;0.00;99.90;;;;;;10366760;28;20038;-88
2022/03/04 04:18:17;;;;;;;53.37;22.70;;;0.00;99.90;;;;;;10358402;28;20737;-85
2022/03/04 04:23:18;;;;;;;56.37;23.33;;;-0.10;99.90;;;;;;10333411;28;20548;-85
2022/03/04 04:28:19;;;;;;;57.33;22.77;;;-0.10;99.90;;;;;;10358241;28;20057;-85
2022/03/04 04:33:19;;;;;;;58.87;25.07;;;-0.10;99.90;;;;;;10365872;28;20061;-84
2022/03/04 04:38:21;;;;;;;59.27;22.97;;;-0.10;99.90;;;;;;10371129;28;20089;-85
2022/03/04 04:43:22;;;;;;;53.47;22.57;;;-0.10;99.90;;;;;;10345646;28;20116;-84
2022/03/04 04:48:22;;;;;;;54.63;22.50;;;-0.10;99.90;;;;;;10357313;28;20046;-84
2022/03/04 04:53:23;;;;;;;54.23;22.97;;;-0.10;99.90;;;;;;10351131;28;20029;-84
2022/03/04 04:58:24;;;;;;;57.07;22.10;;;-0.10;99.90;;;;;;10374003;28;20028;-85
2022/03/04 05:03:26;;;;;;;64.83;24.43;;;-0.10;99.90;;;;;;10382521;28;20034;-83
2022/03/04 05:08:27;;;;;;;58.80;24.60;;;-0.20;99.90;;;;;;10416078;28;20087;-85
2022/03/04 05:13:28;;;;;;;55.00;21.67;;;-0.10;99.90;;;;;;10362093;28;20080;-86
2022/03/04 05:18:30;;;;;;;59.67;25.33;;;-0.10;99.90;;;;;;10356310;28;20064;-86
2022/03/04 05:28:50;;;;;;;57.67;25.03;;;-0.10;99.90;;;;;;10355958;28;20476;-86
2022/03/04 05:33:51;;;;;;;63.47;25.90;;;-0.10;99.90;;;;;;10358238;28;20042;-86
2022/03/04 05:38:52;;;;;;;61.23;25.73;;;-0.10;99.90;;;;;;10352509;28;20088;-86
2022/03/04 05:43:53;;;;;;;61.17;25.77;;;-0.10;99.90;;;;;;10355947;28;20034;-85
2022/03/04 05:48:54;;;;;;;56.37;26.13;;;-0.10;99.90;;;;;;10367977;28;20120;-85
2022/03/04 05:53:54;;;;;;;61.87;28.43;;;-0.10;99.90;;;;;;10372047;28;20462;-85
2022/03/04 05:58:55;;;;;;;64.03;25.30;;;0.00;99.90;;;;;;10352627;28;20026;-85
2022/03/04 06:03:56;;;;;;;60.77;26.93;;;0.00;99.90;;;;;;10351861;28;20034;-85
2022/03/04 06:08:57;;;;;;;65.50;27.57;;;0.00;99.90;;;;;;10369127;28;20037;-86
2022/03/04 06:13:57;;;;;;;58.17;26.63;;;0.10;99.90;;;;;;10360413;28;20084;-85
2022/03/04 06:18:58;;;;;;;61.50;26.70;;;0.10;99.90;;;;;;10373507;28;20060;-86
2022/03/04 06:23:59;;;;;;;60.90;26.63;;;0.20;99.90;;;;;;10370221;28;20042;-85
2022/03/04 06:28:59;;;;;;;66.67;28.07;;;0.20;99.90;;;;;;10370839;28;20067;-85
2022/03/04 06:34:00;;;;;;;67.73;27.87;;;0.20;99.90;;;;;;10350122;28;20136;-85
2022/03/04 06:39:01;;;;;;;61.17;26.97;;;0.30;99.90;;;;;;10383761;28;20030;-85
2022/03/04 06:44:01;;;;;;;64.17;27.83;;;0.30;99.90;;;;;;10366891;28;20069;-85
2022/03/04 06:49:03;;;;;;;69.53;29.00;;;0.30;99.90;;;;;;10372358;28;20034;-85
2022/03/04 06:54:04;;;;;;;70.10;29.43;;;0.30;99.90;;;;;;10369924;28;20103;-85
2022/03/04 06:59:05;;;;;;;70.80;28.93;;;0.30;99.90;;;;;;10369418;28;20059;-86
2022/03/04 07:04:06;;;;;;;68.17;29.77;;;0.40;99.90;;;;;;10367448;28;20080;-85
2022/03/04 07:09:07;;;;;;;73.70;30.63;;;0.40;99.90;;;;;;10367408;28;20466;-86
2022/03/04 07:14:07;;;;;;;68.47;27.83;;;0.40;99.90;;;;;;10338442;28;20440;-86
2022/03/04 07:19:09;;;;;;;77.27;29.03;;;0.40;99.90;;;;;;10351862;28;20057;-87
2022/03/04 07:24:10;;;;;;;62.87;28.30;;;0.50;99.90;;;;;;10369027;28;20030;-87
2022/03/04 07:29:10;;;;;;;64.70;29.07;;;0.70;99.90;;;;;;10369937;28;20029;-87
2022/03/04 07:34:11;;;;;;;66.27;28.43;;;0.80;99.90;;;;;;10369500;28;20050;-86
2022/03/04 07:39:12;;;;;;;72.43;29.57;;;0.80;99.90;;;;;;10369069;28;20033;-87
2022/03/04 07:44:13;;;;;;;71.63;28.17;;;0.70;99.90;;;;;;10368979;28;20099;-87
2022/03/04 07:49:13;;;;;;;71.97;28.07;;;0.80;99.90;;;;;;10351210;28;20030;-86
2022/03/04 07:54:14;;;;;;;74.67;30.33;;;0.90;99.90;;;;;;10368350;28;20033;-86
2022/03/04 07:59:15;;;;;;;76.33;31.53;;;1.00;99.90;;;;;;10368314;28;20080;-87
2022/03/04 08:04:16;;;;;;;65.13;28.70;;;1.20;99.90;;;;;;10350394;28;20034;-87
2022/03/04 08:09:16;;;;;;;72.03;30.80;;;1.30;99.90;;;;;;10368855;28;20104;-86
2022/03/04 08:14:17;;;;;;;70.93;28.83;;;1.30;99.90;;;;;;10367602;28;20032;-86
2022/03/04 08:19:18;;;;;;;68.70;28.53;;;1.50;99.90;;;;;;10368266;28;20468;-86
2022/03/04 08:24:18;;;;;;;71.30;29.43;;;1.60;99.90;;;;;;10368098;28;20477;-86
2022/03/04 08:29:19;;;;;;;69.53;29.23;;;1.60;99.90;;;;;;10367817;28;20030;-85
2022/03/04 08:34:20;;;;;;;75.07;28.93;;;1.50;99.90;;;;;;10368145;28;20099;-86
2022/03/04 08:39:20;;;;;;;76.70;31.70;;;1.30;99.90;;;;;;10349725;28;20041;-86
2022/03/04 08:44:21;;;;;;;77.97;29.57;;;1.40;99.90;;;;;;10367168;28;20037;-86
2022/03/04 08:49:22;;;;;;;79.70;31.20;;;1.40;99.90;;;;;;10367588;28;20374;-86
2022/03/04 08:54:23;;;;;;;88.03;32.63;;;1.30;99.90;;;;;;10366931;28;20026;-86
2022/03/04 08:59:24;;;;;;;94.83;37.33;;;1.30;99.90;;;;;;10367274;28;20033;-85
2022/03/04 09:04:25;;;;;;;85.87;32.33;;;1.30;99.90;;;;;;10349540;28;20046;-86
2022/03/04 09:09:25;;;;;;;79.70;32.87;;;1.40;99.90;;;;;;10349189;28;20033;-85
2022/03/04 09:14:27;;;;;;;80.63;31.53;;;1.40;99.90;;;;;;10367101;28;20041;-86
2022/03/04 09:19:27;;;;;;;82.87;32.77;;;1.60;99.90;;;;;;10366483;28;20034;-87
2022/03/04 09:24:37;;;;;;;81.40;34.67;;;1.60;99.90;;;;;;10368840;28;20034;-85
2022/03/04 09:29:38;;;;;;;93.80;34.93;;;1.70;99.90;;;;;;10373886;28;20034;-85
2022/03/04 09:34:38;;;;;;;93.30;35.33;;;1.70;99.90;;;;;;10373776;28;20054;-85
2022/03/04 09:39:39;;;;;;;94.23;35.17;;;1.70;99.90;;;;;;10356035;28;20030;-85
2022/03/04 09:44:40;;;;;;;95.73;35.47;;;1.80;99.90;;;;;;10373682;28;20034;-85
2022/03/04 09:49:41;;;;;;;83.43;31.63;;;1.80;99.90;;;;;;10355436;28;20409;-85
2022/03/04 09:54:48;;;;;;;80.27;30.37;;;1.70;99.90;;;;;;10373178;28;20036;-85
2022/03/04 09:59:49;;;;;;;83.67;29.90;;;1.70;99.90;;;;;;10373025;28;20464;-85
2022/03/04 10:05:01;;;;;;;416.83;212.83;;;1.80;99.90;;;;;;10372638;28;20037;-84
2022/03/04 10:10:02;;;;;;;93.00;35.53;;;1.80;99.90;;;;;;10372942;28;20569;-85
2022/03/04 10:15:08;;;;;;;103.57;36.33;;;1.90;99.90;;;;;;10372803;28;20022;-85
2022/03/04 10:20:14;;;;;;;101.25;38.70;;;1.90;99.90;;;;;;10372569;28;20026;-85
2022/03/04 10:25:26;;;;;;;103.80;37.33;;;1.80;99.90;;;;;;10372136;28;20034;-85
2022/03/04 10:30:32;;;;;;;106.73;37.37;;;2.00;99.90;;;;;;10353744;28;20037;-84
2022/03/04 10:35:33;;;;;;;106.57;40.13;;;2.10;99.90;;;;;;10372054;28;20544;-85
2022/03/04 10:40:43;;;;;;;97.90;35.77;;;2.10;99.90;;;;;;10370796;28;20109;-84
2022/03/04 10:45:45;;;;;;;80.20;32.17;;;2.10;99.90;;;;;;10371603;28;20749;-84
2022/03/04 10:50:51;;;;;;;100.60;42.50;;;2.10;99.90;;;;;;10371076;28;20030;-85
2022/03/04 10:55:55;;;;;;;88.43;37.25;;;2.10;99.90;;;;;;10370907;28;20033;-85
2022/03/04 11:01:01;;;;;;;89.90;34.73;;;2.10;99.90;;;;;;10370713;28;20034;-85
2022/03/04 11:06:07;;;;;;;136.20;62.65;;;2.30;99.90;;;;;;10370317;28;20030;-85
2022/03/04 11:11:07;;;;;;;91.65;38.83;;;2.50;99.90;;;;;;10370323;28;20058;-85
2022/03/04 11:16:09;;;;;;;88.33;37.00;;;2.50;99.90;;;;;;10369821;28;20069;-85
2022/03/04 11:21:09;;;;;;;82.23;35.43;;;2.80;99.90;;;;;;10370440;28;20026;-86
2022/03/04 11:26:21;;;;;;;122.90;62.93;;;2.70;99.90;;;;;;10369080;28;20041;-86
2022/03/04 11:31:27;;;;;;;67.07;27.13;;;2.70;99.90;;;;;;10369840;28;20022;-85
2022/03/04 11:36:29;;;;;;;60.53;28.95;;;2.60;99.90;;;;;;10369875;28;20137;-85
2022/03/04 11:41:37;;;;;;;60.80;24.90;;;2.60;99.90;;;;;;10369040;28;20024;-84
2022/03/04 11:46:48;;;;;;;67.67;27.27;;;2.60;99.90;;;;;;10351044;28;20038;-85
2022/03/04 11:52:21;;;;;;;62.93;25.93;;;2.60;99.90;;;;;;10368393;28;20058;-84
2022/03/04 11:57:26;;;;;;;57.10;23.97;;;2.80;99.90;;;;;;10324501;28;20088;-85
2022/03/04 12:02:29;;;;;;;56.53;17.70;;;3.00;99.90;;;;;;10368873;28;20468;-85
2022/03/04 12:07:35;;;;;;;55.37;22.67;;;2.70;99.90;;;;;;10368082;28;20045;-85
2022/03/04 12:12:36;;;;;;;64.77;23.43;;;2.50;99.90;;;;;;10350167;28;20022;-85
2022/03/04 12:18:06;;;;;;;62.40;25.40;;;2.60;99.90;;;;;;10368233;28;20095;-86
2022/03/04 12:23:28;;;;;;;70.33;27.73;;;2.80;99.90;;;;;;10333878;28;20460;-85
2022/03/04 12:28:39;;;;;;;61.40;26.53;;;2.80;99.90;;;;;;10366978;28;20402;-85
2022/03/04 12:33:45;;;;;;;70.07;27.70;;;3.10;99.90;;;;;;10368010;28;20026;-84
2022/03/04 12:38:47;;;;;;;;;;;3.20;99.90;;;;;;10368258;28;20030;-84
2022/03/04 12:43:58;;;;;;;59.70;23.30;;;3.30;99.90;;;;;;10367781;28;19957;-85
2022/03/04 12:48:59;;;;;;;56.87;21.87;;;3.20;99.90;;;;;;10361023;28;20081;-85
2022/03/04 12:54:02;;;;;;;58.43;24.67;;;3.10;99.90;;;;;;10350233;28;20109;-84
2022/03/04 12:59:05;;;;;;;57.53;24.07;;;3.00;99.90;;;;;;10363050;28;20038;-83
2022/03/04 13:04:07;;;;;;;52.20;20.80;;;3.10;99.90;;;;;;10374858;28;20037;-84
2022/03/04 13:09:10;;;;;;;48.13;19.13;;;3.30;99.90;;;;;;10357422;28;20125;-84
2022/03/04 13:14:18;;;;;;;47.67;18.20;;;3.20;99.90;;;;;;10374340;28;20109;-84
2022/03/04 13:19:22;;;;;;;48.40;20.10;;;3.20;99.90;;;;;;10368544;28;20018;-84
2022/03/04 13:24:23;;;;;;;51.97;20.30;;;3.10;99.90;;;;;;10373990;28;20022;-83
2022/03/04 13:29:49;;;;;;;52.77;20.53;;;3.10;99.90;;;;;;10374061;28;20029;-83
2022/03/04 13:34:56;;;;;;;54.45;21.80;;;3.00;99.90;;;;;;10362111;28;20046;-84
2022/03/04 13:40:03;;;;;;;50.67;20.33;;;2.90;99.90;;;;;;10371405;28;20030;-84
2022/03/04 13:45:04;;;;;;;53.33;20.03;;;2.80;99.90;;;;;;10369360;28;20061;-83
2022/03/04 13:56:25;;;;;;;46.23;17.90;;;2.70;99.90;;;;;;10371517;28;20069;-86
2022/03/04 14:01:27;;;;;;;48.43;18.03;;;2.60;99.90;;;;;;10338621;28;20029;-83
2022/03/04 14:06:29;;;;;;;44.30;17.53;;;2.50;99.90;;;;;;10362237;28;20163;-83
2022/03/04 14:11:30;;;;;;;47.83;20.57;;;2.40;99.90;;;;;;10354635;28;20053;-84
2022/03/04 14:16:33;;;;;;;51.50;21.20;;;2.40;99.90;;;;;;10371220;28;20057;-85
2022/03/04 14:21:34;;;;;;;60.77;23.43;;;2.40;99.90;;;;;;10362396;28;20037;-87
2022/03/04 14:26:35;;;;;;;61.67;23.07;;;2.40;99.90;;;;;;10342627;28;20388;-87
2022/03/04 14:31:35;;;;;;;63.57;26.40;;;2.40;99.90;;;;;;10348099;28;20034;-84
2022/03/04 14:36:37;;;;;;;68.57;25.87;;;2.40;99.90;;;;;;10360660;28;20142;-85
2022/03/04 14:41:38;;;;;;;60.90;24.80;;;2.50;99.90;;;;;;10342893;28;20057;-85
2022/03/04 14:46:39;;;;;;;59.70;23.53;;;2.40;99.90;;;;;;10366828;28;20041;-87
2022/03/04 14:51:40;;;;;;;54.10;21.60;;;2.40;99.90;;;;;;10347690;28;20041;-84
2022/03/04 14:56:41;;;;;;;54.17;20.97;;;2.30;99.90;;;;;;10361699;28;20036;-85
2022/03/04 15:01:41;;;;;;;57.07;22.53;;;2.30;99.90;;;;;;10370159;28;20041;-86
2022/03/04 15:06:42;;;;;;;64.10;24.13;;;2.20;99.90;;;;;;10367650;28;20034;-86
2022/03/04 15:11:44;;;;;;;60.80;22.67;;;2.20;99.90;;;;;;10369206;28;20493;-85
2022/03/04 15:16:44;;;;;;;60.27;23.00;;;2.20;99.90;;;;;;10350378;28;20042;-86
2022/03/04 15:21:45;;;;;;;63.47;23.70;;;2.20;99.90;;;;;;10365523;28;20390;-86
2022/03/04 15:26:46;;;;;;;63.47;25.50;;;2.20;99.90;;;;;;10368981;28;20466;-83
2022/03/04 15:31:48;;;;;;;63.90;24.10;;;2.10;99.90;;;;;;10368784;28;20072;-83
2022/03/04 15:36:49;;;;;;;64.63;22.83;;;2.10;99.90;;;;;;10356549;28;20137;-84
2022/03/04 15:41:55;;;;;;;60.87;23.63;;;2.10;99.90;;;;;;10367589;28;20560;-83
2022/03/04 15:46:56;;;;;;;59.97;21.93;;;2.00;99.90;;;;;;10366412;28;20044;-82
2022/03/04 15:51:57;;;;;;;49.77;20.53;;;2.00;99.90;;;;;;10350674;28;20504;-83
2022/03/04 15:56:58;;;;;;;56.53;21.87;;;2.00;99.90;;;;;;10357487;28;20164;-83
2022/03/04 16:01:59;;;;;;;51.23;20.93;;;1.90;99.90;;;;;;10361401;28;20029;-82
2022/03/04 16:07:00;;;;;;;57.97;22.30;;;1.80;99.90;;;;;;10359256;28;20606;-82
2022/03/04 16:12:02;;;;;;;58.10;22.60;;;1.80;99.90;;;;;;10367871;28;20029;-82
2022/03/04 16:17:02;;;;;;;76.50;26.63;;;1.90;99.90;;;;;;10350680;28;20030;-83
2022/03/04 16:22:03;;;;;;;82.10;28.23;;;1.80;99.90;;;;;;10367886;28;20030;-82
2022/03/04 16:27:06;;;;;;;72.90;25.80;;;1.70;99.90;;;;;;10367503;28;20068;-83
2022/03/04 16:32:07;;;;;;;71.80;28.27;;;1.60;99.90;;;;;;10368274;28;20036;-82
2022/03/04 16:37:07;;;;;;;77.23;27.43;;;1.60;99.90;;;;;;10367340;28;20054;-83
2022/03/04 16:42:08;;;;;;;69.83;26.60;;;1.40;99.90;;;;;;10367921;28;20081;-83
2022/03/04 16:47:13;;;;;;;74.57;25.40;;;1.40;99.90;;;;;;10364324;28;20034;-83
2022/03/04 16:52:15;;;;;;;71.67;26.23;;;1.40;99.90;;;;;;10367311;28;20041;-83
2022/03/04 16:57:16;;;;;;;82.03;30.23;;;1.40;99.90;;;;;;10368046;28;20409;-82
2022/03/04 17:02:17;;;;;;;77.03;29.00;;;1.40;99.90;;;;;;10349381;28;20026;-84
2022/03/04 17:07:17;;;;;;;83.77;28.90;;;1.30;99.90;;;;;;10366344;28;20042;-83
2022/03/04 17:12:18;;;;;;;71.77;27.77;;;1.30;99.90;;;;;;10348631;28;20481;-82
2022/03/04 17:17:20;;;;;;;63.70;26.50;;;1.30;99.90;;;;;;10366821;28;20397;-85
2022/03/04 17:22:22;;;;;;;56.27;22.77;;;1.30;99.90;;;;;;10367475;28;20021;-87
2022/03/04 17:27:23;;;;;;;49.17;20.40;;;1.30;99.90;;;;;;10366917;28;20037;-85
2022/03/04 17:32:25;;;;;;;51.80;20.70;;;1.20;99.90;;;;;;10366310;28;20025;-85
2022/03/04 17:37:27;;;;;;;51.77;19.73;;;1.10;99.90;;;;;;10345645;28;20078;-86
2022/03/04 17:42:29;;;;;;;38.87;15.57;;;1.10;99.90;;;;;;10360572;28;20062;-86
2022/03/04 17:47:30;;;;;;;52.87;20.70;;;1.10;99.90;;;;;;10367800;28;20049;-86
2022/03/04 17:58:28;;;;;;;;;;;1.10;99.90;;;;;;10357183;28;20029;-85
2022/03/04 18:03:28;;;;;;;57.00;21.80;;;1.20;99.90;;;;;;10356207;28;20293;-84
2022/03/04 18:08:29;;;;;;;57.63;22.37;;;1.10;99.90;;;;;;10357826;28;20034;-85
2022/03/04 18:19:31;;;;;;;63.87;23.77;;;1.20;99.90;;;;;;10369993;28;20026;-86
2022/03/04 18:24:32;;;;;;;63.13;23.30;;;1.10;99.90;;;;;;10370845;28;20034;-85
2022/03/04 18:29:33;;;;;;;74.30;27.17;;;1.20;99.90;;;;;;10357456;28;20409;-84
2022/03/04 18:34:33;;;;;;;76.37;28.47;;;1.20;99.90;;;;;;10353767;28;20054;-84
2022/03/04 18:50:12;;;;;;;75.80;29.33;;;1.20;99.90;;;;;;10371336;28;20038;-85
2022/03/04 18:55:13;;;;;;;71.80;27.77;;;1.10;99.90;;;;;;10363715;28;20030;-86
2022/03/04 19:00:15;;;;;;;71.20;28.40;;;1.10;99.90;;;;;;10355091;28;20053;-85
2022/03/04 19:05:16;;;;;;;79.23;29.37;;;1.10;99.90;;;;;;10353799;28;20038;-85
2022/03/04 19:10:18;;;;;;;88.97;31.70;;;1.10;99.90;;;;;;10352245;28;20030;-85
2022/03/04 19:15:20;;;;;;;86.33;31.60;;;1.10;99.90;;;;;;10353053;28;20126;-86
2022/03/04 19:20:30;;;;;;;88.53;32.13;;;1.10;99.90;;;;;;10350286;28;20562;-85
2022/03/04 19:31:28;;;;;;;86.60;36.17;;;1.10;99.90;;;;;;10338982;28;20101;-85
2022/03/04 19:36:29;;;;;;;85.53;35.33;;;1.10;99.90;;;;;;10356490;28;20054;-88
2022/03/04 19:41:30;;;;;;;110.20;41.33;;;1.10;99.90;;;;;;10358524;28;20109;-85
2022/03/04 19:46:31;;;;;;;92.87;37.67;;;1.10;99.90;;;;;;10344871;28;20103;-84
2022/03/04 19:51:32;;;;;;;95.47;38.77;;;1.10;99.90;;;;;;10364357;28;20121;-86
2022/03/04 19:56:33;;;;;;;99.27;37.10;;;1.10;99.90;;;;;;10362944;28;20029;-85
2022/03/04 20:01:34;;;;;;;97.30;37.70;;;1.00;99.90;;;;;;10376557;28;20413;-86
2022/03/04 20:06:35;;;;;;;96.93;37.97;;;1.00;99.90;;;;;;10351233;28;20049;-86
2022/03/04 20:11:36;;;;;;;105.83;37.50;;;1.00;99.90;;;;;;10350499;28;20088;-85
2022/03/04 20:16:37;;;;;;;92.53;36.90;;;1.00;99.90;;;;;;10368181;28;20033;-84
2022/03/04 20:21:38;;;;;;;99.53;37.37;;;1.00;99.90;;;;;;10367789;28;20041;-85
2022/03/04 20:26:39;;;;;;;97.87;39.70;;;1.00;99.90;;;;;;10367203;28;20068;-84
2022/03/04 20:31:39;;;;;;;100.57;37.13;;;0.90;99.90;;;;;;10366550;28;20065;-85
2022/03/04 20:36:40;;;;;;;92.00;38.00;;;0.90;99.90;;;;;;10367142;28;20107;-85
2022/03/04 20:41:41;;;;;;;102.43;38.20;;;0.90;99.90;;;;;;10365397;28;20045;-85
2022/03/04 20:46:42;;;;;;;109.00;40.10;;;0.90;99.90;;;;;;10366456;28;20049;-87
2022/03/04 20:51:42;;;;;;;99.67;38.93;;;1.00;99.90;;;;;;10366193;28;20466;-85
2022/03/04 20:56:43;;;;;;;112.43;39.80;;;1.00;99.90;;;;;;10366023;28;20041;-86
2022/03/04 21:01:44;;;;;;;99.07;40.73;;;1.00;99.90;;;;;;10366327;28;20387;-85
2022/03/04 21:06:45;;;;;;;107.17;41.47;;;1.00;99.90;;;;;;10362040;28;20053;-86
2022/03/04 21:11:45;;;;;;;103.63;40.13;;;1.00;99.90;;;;;;10359090;28;20044;-85
2022/03/04 21:16:46;;;;;;;102.53;38.23;;;1.00;99.90;;;;;;10364676;28;20038;-85
2022/03/04 21:21:47;;;;;;;97.87;37.73;;;0.90;99.90;;;;;;10369782;28;20393;-85
2022/03/04 21:26:47;;;;;;;95.87;37.77;;;1.00;99.90;;;;;;10369611;28;20034;-84
2022/03/04 21:31:48;;;;;;;106.40;36.60;;;0.90;99.90;;;;;;10362566;28;20088;-85
2022/03/04 21:36:49;;;;;;;90.80;35.80;;;1.00;99.90;;;;;;10358851;28;20046;-86
2022/03/04 21:41:50;;;;;;;100.80;37.70;;;0.90;99.90;;;;;;10372331;28;20557;-85
2022/03/04 21:46:51;;;;;;;102.93;40.17;;;0.90;99.90;;;;;;10371279;28;20050;-86
2022/03/04 21:51:52;;;;;;;104.00;38.53;;;0.90;99.90;;;;;;10370037;28;20113;-84
2022/03/04 21:56:53;;;;;;;99.10;38.80;;;0.90;99.90;;;;;;10371009;28;20030;-84
2022/03/04 22:01:53;;;;;;;107.23;41.03;;;0.90;99.90;;;;;;10371550;28;20030;-86
2022/03/04 22:06:54;;;;;;;122.40;44.03;;;0.90;99.90;;;;;;10342006;28;20462;-87
2022/03/04 22:11:55;;;;;;;116.27;45.60;;;0.90;99.90;;;;;;10369775;28;20112;-85
2022/03/04 22:16:55;;;;;;;105.27;39.60;;;0.90;99.90;;;;;;10372485;28;20040;-85
2022/03/04 22:21:56;;;;;;;114.37;42.27;;;0.90;99.90;;;;;;10369121;28;20025;-84
2022/03/04 22:26:59;;;;;;;113.83;41.90;;;0.90;99.90;;;;;;10370177;28;20069;-85
2022/03/04 22:31:59;;;;;;;112.93;40.87;;;0.80;99.90;;;;;;10369066;28;20034;-86
2022/03/04 22:37:00;;;;;;;122.80;45.93;;;0.80;99.90;;;;;;10360187;28;20140;-87
2022/03/04 22:42:01;;;;;;;112.90;41.47;;;0.80;99.90;;;;;;10371614;28;20120;-86
2022/03/04 22:47:01;;;;;;;121.37;44.23;;;0.90;99.90;;;;;;10352287;28;20033;-86
2022/03/04 22:52:03;;;;;;;122.13;42.27;;;0.80;99.90;;;;;;10351987;28;20041;-85
2022/03/04 22:57:04;;;;;;;120.77;42.50;;;0.90;99.90;;;;;;10370309;28;20038;-86
2022/03/04 23:02:05;;;;;;;127.87;45.90;;;0.90;99.90;;;;;;10351632;28;20571;-86
2022/03/04 23:12:25;;;;;;;130.23;44.30;;;0.80;99.90;;;;;;10369173;28;20038;-86
2022/03/04 23:17:25;;;;;;;119.83;44.50;;;0.80;99.90;;;;;;10368650;28;20022;-86
2022/03/04 23:22:26;;;;;;;125.60;43.23;;;0.80;99.90;;;;;;10369170;28;20029;-85
2022/03/04 23:27:52;;;;;;;115.57;42.30;;;0.80;99.90;;;;;;10368065;28;20121;-86
2022/03/04 23:32:53;;;;;;;122.35;43.88;;;0.80;99.90;;;;;;10364073;28;20037;-86
2022/03/04 23:37:53;;;;;;;127.37;47.63;;;0.80;99.90;;;;;;10324375;28;20054;-87
2022/03/04 23:42:57;;;;;;;120.27;40.83;;;0.80;99.90;;;;;;10326103;28;20026;-86
2022/03/04 23:53:59;;;;;;;115.73;45.03;;;0.80;99.90;;;;;;10316372;28;20124;-87
2022/03/04 23:59:00;;;;;;;129.33;47.60;;;0.80;99.90;;;;;;10322498;28;20180;-88
